NJE026G EDDM-EDDW
Flight info
| Callsign | NJE026G |
|---|---|
| Flight time | 0h 58m |
| Altitude | 30000 |
| Route | INPUD Y102 ALIBU DCT MASEKDCT ELNAT P605 NORTA Z595 NIE Z88 VERED |
| Aircraft | CL60/M-SBDE1E2E3FGHIJ1J4J5J7M3RWXYZ/LB1V1D1 |
Departure
| Time | 2026-05-05 23:07 |
|---|---|
| Airport | Munich Airport (EDDM) |
Arrival
| Time | 2026-05-06 00:05 |
|---|---|
| Airport | Bremen Airport (EDDW) |
| Time | Latitude | Longitude | Altitude | Speed | Heading |
|---|---|---|---|---|---|
| 2026-05-05 22:30 | 48.35784 | 11.80362 | 1467 ft | 0 kts | 173° |
| 2026-05-05 22:49 | 48.35792 | 11.80361 | 1466 ft | 2 kts | 173° |
| 2026-05-05 22:49 | 48.35807 | 11.80360 | 1466 ft | 2 kts | 187° |
| 2026-05-05 22:50 | 48.35821 | 11.80367 | 1466 ft | 2 kts | 210° |
| 2026-05-05 22:50 | 48.35832 | 11.80381 | 1466 ft | 2 kts | 232° |
| 2026-05-05 22:50 | 48.35839 | 11.80401 | 1466 ft | 2 kts | 255° |
| 2026-05-05 22:50 | 48.35841 | 11.80413 | 1466 ft | 0 kts | 264° |
| 2026-05-05 22:57 | 48.35840 | 11.80407 | 1466 ft | 2 kts | 265° |
| 2026-05-05 22:57 | 48.35837 | 11.80365 | 1466 ft | 2 kts | 264° |
| 2026-05-05 22:57 | 48.35834 | 11.80320 | 1466 ft | 5 kts | 265° |
| 2026-05-05 22:58 | 48.35855 | 11.80258 | 1466 ft | 8 kts | 308° |
| 2026-05-05 22:58 | 48.35867 | 11.80167 | 1466 ft | 10 kts | 261° |
| 2026-05-05 22:58 | 48.35857 | 11.80049 | 1467 ft | 12 kts | 263° |
| 2026-05-05 22:58 | 48.35847 | 11.79908 | 1468 ft | 14 kts | 263° |
| 2026-05-05 22:59 | 48.35835 | 11.79747 | 1468 ft | 16 kts | 261° |
| 2026-05-05 22:59 | 48.35822 | 11.79597 | 1469 ft | 10 kts | 266° |
| 2026-05-05 22:59 | 48.35850 | 11.79520 | 1469 ft | 9 kts | 360° |
| 2026-05-05 22:59 | 48.35931 | 11.79507 | 1468 ft | 13 kts | 353° |
| 2026-05-05 23:00 | 48.36113 | 11.79549 | 1466 ft | 15 kts | 84° |
| 2026-05-05 23:00 | 48.36127 | 11.79728 | 1465 ft | 19 kts | 83° |
| 2026-05-05 23:00 | 48.36142 | 11.79947 | 1464 ft | 22 kts | 84° |
| 2026-05-05 23:01 | 48.36162 | 11.80199 | 1462 ft | 25 kts | 83° |
| 2026-05-05 23:01 | 48.36183 | 11.80472 | 1460 ft | 27 kts | 83° |
| 2026-05-05 23:01 | 48.36207 | 11.80761 | 1459 ft | 26 kts | 83° |
| 2026-05-05 23:01 | 48.36227 | 11.81037 | 1457 ft | 27 kts | 84° |
| 2026-05-05 23:02 | 48.36248 | 11.81322 | 1456 ft | 27 kts | 83° |
| 2026-05-05 23:02 | 48.36272 | 11.81619 | 1455 ft | 28 kts | 83° |
| 2026-05-05 23:02 | 48.36292 | 11.81867 | 1454 ft | 13 kts | 78° |
| 2026-05-05 23:02 | 48.36340 | 11.81958 | 1454 ft | 12 kts | 38° |
| 2026-05-05 23:03 | 48.36400 | 11.82009 | 1454 ft | 9 kts | 2° |
| 2026-05-05 23:03 | 48.36465 | 11.81998 | 1454 ft | 7 kts | 353° |
| 2026-05-05 23:03 | 48.36472 | 11.81997 | 1454 ft | 0 kts | 353° |
| 2026-05-05 23:04 | 48.36487 | 11.81995 | 1454 ft | 8 kts | 354° |
| 2026-05-05 23:04 | 48.36564 | 11.81981 | 1454 ft | 13 kts | 353° |
| 2026-05-05 23:05 | 48.36633 | 11.81966 | 1454 ft | 10 kts | 351° |
| 2026-05-05 23:05 | 48.36645 | 11.81962 | 1454 ft | 0 kts | 349° |
| 2026-05-05 23:05 | 48.36652 | 11.81960 | 1453 ft | 3 kts | 349° |
| 2026-05-05 23:05 | 48.36668 | 11.81955 | 1453 ft | 4 kts | 339° |
| 2026-05-05 23:06 | 48.36675 | 11.81923 | 1454 ft | 0 kts | 258° |
| 2026-05-05 23:06 | 48.36672 | 11.81896 | 1454 ft | 17 kts | 262° |
| 2026-05-05 23:06 | 48.36619 | 11.81211 | 1455 ft | 116 kts | 263° |
| 2026-05-05 23:06 | 48.36501 | 11.79626 | 1763 ft | 173 kts | 262° |
| 2026-05-05 23:07 | 48.36379 | 11.77767 | 2705 ft | 192 kts | 265° |
| 2026-05-05 23:07 | 48.36279 | 11.75637 | 3576 ft | 219 kts | 267° |
| 2026-05-05 23:07 | 48.36161 | 11.73354 | 4471 ft | 222 kts | 266° |
| 2026-05-05 23:07 | 48.36023 | 11.71036 | 5286 ft | 230 kts | 266° |
| 2026-05-05 23:08 | 48.36214 | 11.68622 | 6477 ft | 245 kts | 289° |
| 2026-05-05 23:08 | 48.37096 | 11.66496 | 7879 ft | 255 kts | 312° |
| 2026-05-05 23:08 | 48.38624 | 11.65129 | 9225 ft | 269 kts | 341° |
| 2026-05-05 23:08 | 48.40484 | 11.64542 | 10492 ft | 282 kts | 347° |
| 2026-05-05 23:09 | 48.42453 | 11.63986 | 11675 ft | 295 kts | 346° |
| 2026-05-05 23:09 | 48.44471 | 11.63408 | 12921 ft | 303 kts | 346° |
| 2026-05-05 23:09 | 48.46543 | 11.62812 | 14155 ft | 309 kts | 346° |
| 2026-05-05 23:09 | 48.48677 | 11.62195 | 15287 ft | 318 kts | 346° |
| 2026-05-05 23:10 | 48.50865 | 11.61561 | 16354 ft | 326 kts | 346° |
| 2026-05-05 23:10 | 48.53104 | 11.60911 | 17419 ft | 332 kts | 346° |
| 2026-05-05 23:10 | 48.55370 | 11.60251 | 18407 ft | 339 kts | 346° |
| 2026-05-05 23:10 | 48.57684 | 11.59436 | 19306 ft | 344 kts | 339° |
| 2026-05-05 23:11 | 48.60006 | 11.58144 | 19722 ft | 367 kts | 335° |
| 2026-05-05 23:11 | 48.62444 | 11.56719 | 20260 ft | 384 kts | 336° |
| 2026-05-05 23:11 | 48.64965 | 11.55257 | 21034 ft | 394 kts | 336° |
| 2026-05-05 23:11 | 48.67532 | 11.53769 | 21862 ft | 400 kts | 336° |
| 2026-05-05 23:12 | 48.70172 | 11.52240 | 22710 ft | 406 kts | 335° |
| 2026-05-05 23:12 | 48.72838 | 11.50694 | 23489 ft | 412 kts | 336° |
| 2026-05-05 23:12 | 48.75513 | 11.49142 | 24281 ft | 417 kts | 335° |
| 2026-05-05 23:12 | 48.78223 | 11.47568 | 25034 ft | 422 kts | 336° |
| 2026-05-05 23:13 | 48.81014 | 11.45946 | 25746 ft | 428 kts | 335° |
| 2026-05-05 23:13 | 48.83805 | 11.44320 | 26452 ft | 432 kts | 335° |
| 2026-05-05 23:13 | 48.86619 | 11.42681 | 27095 ft | 437 kts | 336° |
| 2026-05-05 23:13 | 48.89457 | 11.41025 | 27709 ft | 441 kts | 336° |
| 2026-05-05 23:14 | 48.92352 | 11.39334 | 28292 ft | 445 kts | 336° |
| 2026-05-05 23:14 | 48.95264 | 11.37631 | 28865 ft | 449 kts | 336° |
| 2026-05-05 23:14 | 48.98201 | 11.35911 | 29394 ft | 453 kts | 336° |
| 2026-05-05 23:14 | 49.01147 | 11.34184 | 29762 ft | 460 kts | 335° |
| 2026-05-05 23:15 | 49.07219 | 11.30619 | 29844 ft | 463 kts | 335° |
| 2026-05-05 23:15 | 49.13211 | 11.27093 | 29832 ft | 457 kts | 336° |
| 2026-05-05 23:16 | 49.19175 | 11.23574 | 29837 ft | 458 kts | 336° |
| 2026-05-05 23:16 | 49.25180 | 11.20112 | 29834 ft | 460 kts | 337° |
| 2026-05-05 23:17 | 49.31343 | 11.16626 | 29826 ft | 481 kts | 337° |
| 2026-05-05 23:17 | 49.37719 | 11.13013 | 29830 ft | 492 kts | 338° |
| 2026-05-05 23:18 | 49.44181 | 11.09341 | 29832 ft | 493 kts | 338° |
| 2026-05-05 23:18 | 49.50607 | 11.05680 | 29830 ft | 494 kts | 338° |
| 2026-05-05 23:19 | 49.56676 | 11.00759 | 29829 ft | 490 kts | 326° |
| 2026-05-05 23:19 | 49.62493 | 10.95277 | 29813 ft | 489 kts | 327° |
| 2026-05-05 23:20 | 49.68326 | 10.89772 | 29813 ft | 489 kts | 327° |
| 2026-05-05 23:20 | 49.74140 | 10.84270 | 29813 ft | 489 kts | 327° |
| 2026-05-05 23:21 | 49.79945 | 10.78764 | 29804 ft | 489 kts | 327° |
| 2026-05-05 23:21 | 49.85764 | 10.73228 | 29810 ft | 489 kts | 327° |
| 2026-05-05 23:22 | 49.91586 | 10.67672 | 29804 ft | 486 kts | 327° |
| 2026-05-05 23:22 | 49.97316 | 10.62188 | 29805 ft | 482 kts | 327° |
| 2026-05-05 23:23 | 50.03024 | 10.56707 | 29797 ft | 482 kts | 328° |
| 2026-05-05 23:23 | 50.08819 | 10.51431 | 29813 ft | 483 kts | 329° |
| 2026-05-05 23:24 | 50.11725 | 10.48707 | 29398 ft | 488 kts | 329° |
| 2026-05-05 23:24 | 50.14612 | 10.45942 | 29251 ft | 475 kts | 329° |
| 2026-05-05 23:24 | 50.17440 | 10.43300 | 29502 ft | 470 kts | 330° |
| 2026-05-05 23:24 | 50.20248 | 10.40681 | 29546 ft | 478 kts | 328° |
| 2026-05-05 23:25 | 50.23089 | 10.37929 | 29678 ft | 482 kts | 327° |
| 2026-05-05 23:25 | 50.25915 | 10.35095 | 29765 ft | 485 kts | 327° |
| 2026-05-05 23:25 | 50.31659 | 10.29355 | 29797 ft | 487 kts | 326° |
| 2026-05-05 23:26 | 50.37364 | 10.23533 | 29800 ft | 484 kts | 320° |
| 2026-05-05 23:26 | 50.41906 | 10.15809 | 29775 ft | 483 kts | 310° |
| 2026-05-05 23:27 | 50.46352 | 10.07855 | 29778 ft | 485 kts | 310° |
| 2026-05-05 23:27 | 50.50830 | 9.99828 | 29776 ft | 486 kts | 310° |
| 2026-05-05 23:28 | 50.55274 | 9.91844 | 29778 ft | 486 kts | 310° |
| 2026-05-05 23:28 | 50.59721 | 9.83834 | 29777 ft | 487 kts | 310° |
| 2026-05-05 23:29 | 50.64202 | 9.75741 | 29769 ft | 488 kts | 311° |
| 2026-05-05 23:29 | 50.68756 | 9.67719 | 29766 ft | 489 kts | 317° |
| 2026-05-05 23:30 | 50.71443 | 9.64553 | 29754 ft | 488 kts | 330° |
| 2026-05-05 23:30 | 50.74553 | 9.62380 | 29762 ft | 486 kts | 344° |
| 2026-05-05 23:30 | 50.77834 | 9.61356 | 29763 ft | 483 kts | 358° |
| 2026-05-05 23:30 | 50.81221 | 9.61441 | 29762 ft | 480 kts | 9° |
| 2026-05-05 23:31 | 50.87831 | 9.62735 | 29766 ft | 479 kts | 11° |
| 2026-05-05 23:31 | 50.94481 | 9.64042 | 29774 ft | 478 kts | 11° |
| 2026-05-05 23:32 | 51.01105 | 9.65345 | 29778 ft | 478 kts | 11° |
| 2026-05-05 23:32 | 51.07704 | 9.66644 | 29784 ft | 478 kts | 11° |
| 2026-05-05 23:33 | 51.14286 | 9.67937 | 29777 ft | 479 kts | 11° |
| 2026-05-05 23:33 | 51.20934 | 9.69240 | 29784 ft | 480 kts | 10° |
| 2026-05-05 23:34 | 51.27613 | 9.70334 | 29783 ft | 482 kts | 9° |
| 2026-05-05 23:34 | 51.34319 | 9.71421 | 29785 ft | 483 kts | 9° |
| 2026-05-05 23:35 | 51.41013 | 9.72509 | 29785 ft | 483 kts | 9° |
| 2026-05-05 23:35 | 51.47723 | 9.73614 | 29783 ft | 484 kts | 9° |
| 2026-05-05 23:36 | 51.54422 | 9.74874 | 29782 ft | 486 kts | 9° |
| 2026-05-05 23:36 | 51.61160 | 9.76151 | 29786 ft | 486 kts | 9° |
| 2026-05-05 23:37 | 51.67913 | 9.77435 | 29787 ft | 488 kts | 9° |
| 2026-05-05 23:37 | 51.74684 | 9.78724 | 29783 ft | 488 kts | 9° |
| 2026-05-05 23:38 | 51.81448 | 9.80015 | 29789 ft | 489 kts | 9° |
| 2026-05-05 23:38 | 51.88255 | 9.79996 | 29782 ft | 492 kts | 348° |
| 2026-05-05 23:39 | 51.94764 | 9.76510 | 29773 ft | 494 kts | 340° |
| 2026-05-05 23:39 | 52.01255 | 9.72819 | 29789 ft | 493 kts | 340° |
| 2026-05-05 23:40 | 52.07700 | 9.69140 | 29804 ft | 491 kts | 340° |
| 2026-05-05 23:40 | 52.14182 | 9.65425 | 29808 ft | 489 kts | 339° |
| 2026-05-05 23:41 | 52.20599 | 9.61734 | 29814 ft | 489 kts | 340° |
| 2026-05-05 23:41 | 52.27048 | 9.58014 | 29811 ft | 491 kts | 340° |
| 2026-05-05 23:42 | 52.33468 | 9.54299 | 29828 ft | 491 kts | 339° |
| 2026-05-05 23:42 | 52.39935 | 9.50545 | 29835 ft | 491 kts | 340° |
| 2026-05-05 23:43 | 52.43141 | 9.48681 | 29621 ft | 481 kts | 339° |
| 2026-05-05 23:43 | 52.46268 | 9.46861 | 29092 ft | 469 kts | 339° |
| 2026-05-05 23:43 | 52.49325 | 9.45078 | 28529 ft | 460 kts | 339° |
| 2026-05-05 23:43 | 52.52283 | 9.43349 | 27957 ft | 452 kts | 339° |
| 2026-05-05 23:44 | 52.55217 | 9.41631 | 27380 ft | 444 kts | 339° |
| 2026-05-05 23:44 | 52.58100 | 9.39941 | 26802 ft | 437 kts | 339° |
| 2026-05-05 23:44 | 52.60944 | 9.38272 | 26212 ft | 431 kts | 339° |
| 2026-05-05 23:44 | 52.63749 | 9.36615 | 25659 ft | 424 kts | 339° |
| 2026-05-05 23:45 | 52.66504 | 9.34970 | 25097 ft | 418 kts | 338° |
| 2026-05-05 23:45 | 52.69225 | 9.33342 | 24548 ft | 412 kts | 338° |
| 2026-05-05 23:45 | 52.71891 | 9.31744 | 24009 ft | 406 kts | 338° |
| 2026-05-05 23:45 | 52.74554 | 9.30144 | 23475 ft | 401 kts | 338° |
| 2026-05-05 23:46 | 52.77175 | 9.28568 | 22948 ft | 396 kts | 338° |
| 2026-05-05 23:46 | 52.79731 | 9.27031 | 22426 ft | 390 kts | 338° |
| 2026-05-05 23:46 | 52.82274 | 9.25500 | 21909 ft | 385 kts | 338° |
| 2026-05-05 23:46 | 52.84764 | 9.23998 | 21398 ft | 379 kts | 338° |
| 2026-05-05 23:47 | 52.87220 | 9.22516 | 20907 ft | 374 kts | 338° |
| 2026-05-05 23:47 | 52.89667 | 9.21036 | 20410 ft | 369 kts | 338° |
| 2026-05-05 23:47 | 52.92053 | 9.19593 | 19922 ft | 364 kts | 338° |
| 2026-05-05 23:47 | 52.94432 | 9.18153 | 19430 ft | 358 kts | 338° |
| 2026-05-05 23:48 | 52.96744 | 9.16750 | 18956 ft | 353 kts | 338° |
| 2026-05-05 23:48 | 52.99050 | 9.15349 | 18483 ft | 348 kts | 338° |
| 2026-05-05 23:48 | 53.01329 | 9.13963 | 18036 ft | 344 kts | 338° |
| 2026-05-05 23:48 | 53.03593 | 9.12584 | 17565 ft | 339 kts | 339° |
| 2026-05-05 23:49 | 53.05801 | 9.11240 | 17131 ft | 335 kts | 338° |
| 2026-05-05 23:49 | 53.07984 | 9.09909 | 16682 ft | 331 kts | 339° |
| 2026-05-05 23:49 | 53.10110 | 9.08385 | 16227 ft | 326 kts | 328° |
| 2026-05-05 23:49 | 53.11836 | 9.05987 | 15721 ft | 322 kts | 309° |
| 2026-05-05 23:50 | 53.12985 | 9.02837 | 15214 ft | 317 kts | 290° |
| 2026-05-05 23:50 | 53.13440 | 8.99273 | 14650 ft | 310 kts | 271° |
| 2026-05-05 23:50 | 53.13395 | 8.95763 | 14279 ft | 297 kts | 267° |
| 2026-05-05 23:50 | 53.13323 | 8.92412 | 13904 ft | 287 kts | 268° |
| 2026-05-05 23:51 | 53.13255 | 8.89113 | 13566 ft | 279 kts | 268° |
| 2026-05-05 23:51 | 53.13187 | 8.85885 | 13205 ft | 276 kts | 268° |
| 2026-05-05 23:51 | 53.13119 | 8.82723 | 12818 ft | 275 kts | 268° |
| 2026-05-05 23:51 | 53.13051 | 8.79582 | 12631 ft | 267 kts | 268° |
| 2026-05-05 23:52 | 53.12982 | 8.76465 | 12198 ft | 269 kts | 268° |
| 2026-05-05 23:52 | 53.12912 | 8.73333 | 11878 ft | 268 kts | 268° |
| 2026-05-05 23:52 | 53.12841 | 8.70232 | 11486 ft | 269 kts | 268° |
| 2026-05-05 23:52 | 53.12770 | 8.67147 | 11145 ft | 267 kts | 268° |
| 2026-05-05 23:53 | 53.12697 | 8.64041 | 10779 ft | 266 kts | 268° |
| 2026-05-05 23:53 | 53.12623 | 8.60942 | 10426 ft | 266 kts | 268° |
| 2026-05-05 23:53 | 53.12549 | 8.57863 | 10061 ft | 265 kts | 268° |
| 2026-05-05 23:53 | 53.12475 | 8.54813 | 9727 ft | 263 kts | 268° |
| 2026-05-05 23:54 | 53.12400 | 8.51783 | 9378 ft | 262 kts | 269° |
| 2026-05-05 23:54 | 53.12325 | 8.48738 | 9019 ft | 262 kts | 269° |
| 2026-05-05 23:54 | 53.12249 | 8.45742 | 8685 ft | 260 kts | 268° |
| 2026-05-05 23:54 | 53.12173 | 8.42727 | 8336 ft | 258 kts | 269° |
| 2026-05-05 23:55 | 53.12096 | 8.39761 | 7996 ft | 256 kts | 269° |
| 2026-05-05 23:55 | 53.12019 | 8.36792 | 7662 ft | 254 kts | 268° |
| 2026-05-05 23:55 | 53.11694 | 8.33911 | 7271 ft | 254 kts | 248° |
| 2026-05-05 23:55 | 53.10719 | 8.31472 | 6846 ft | 254 kts | 222° |
| 2026-05-05 23:56 | 53.09210 | 8.29920 | 6448 ft | 252 kts | 200° |
| 2026-05-05 23:56 | 53.07690 | 8.28524 | 6102 ft | 250 kts | 223° |
| 2026-05-05 23:56 | 53.06476 | 8.26545 | 5734 ft | 247 kts | 206° |
| 2026-05-05 23:56 | 53.04850 | 8.26197 | 5359 ft | 235 kts | 156° |
| 2026-05-05 23:57 | 53.03730 | 8.27925 | 5052 ft | 219 kts | 101° |
| 2026-05-05 23:57 | 53.03746 | 8.30376 | 4756 ft | 214 kts | 88° |
| 2026-05-05 23:57 | 53.03657 | 8.32865 | 4527 ft | 216 kts | 91° |
| 2026-05-05 23:57 | 53.03621 | 8.35300 | 4386 ft | 206 kts | 86° |
| 2026-05-05 23:58 | 53.03658 | 8.37632 | 4216 ft | 197 kts | 85° |
| 2026-05-05 23:58 | 53.03706 | 8.39639 | 4038 ft | 192 kts | 85° |
| 2026-05-05 23:58 | 53.03714 | 8.39951 | 4009 ft | 191 kts | 85° |
| 2026-05-05 23:58 | 53.03771 | 8.42138 | 3810 ft | 185 kts | 84° |
| 2026-05-05 23:59 | 53.03825 | 8.44215 | 3670 ft | 176 kts | 84° |
| 2026-05-05 23:59 | 53.03877 | 8.46214 | 3560 ft | 165 kts | 84° |
| 2026-05-05 23:59 | 53.03926 | 8.48109 | 3443 ft | 165 kts | 84° |
| 2026-05-05 23:59 | 53.03978 | 8.50028 | 3267 ft | 168 kts | 84° |
| 2026-05-06 00:00 | 53.04028 | 8.51973 | 3059 ft | 166 kts | 84° |
| 2026-05-06 00:00 | 53.04076 | 8.53886 | 2830 ft | 166 kts | 84° |
| 2026-05-06 00:00 | 53.04124 | 8.55790 | 2593 ft | 164 kts | 84° |
| 2026-05-06 00:00 | 53.04168 | 8.57614 | 2362 ft | 147 kts | 84° |
| 2026-05-06 00:01 | 53.04203 | 8.59196 | 2199 ft | 125 kts | 84° |
| 2026-05-06 00:01 | 53.04233 | 8.60535 | 2070 ft | 109 kts | 83° |
| 2026-05-06 00:01 | 53.04266 | 8.61785 | 1909 ft | 107 kts | 83° |
| 2026-05-06 00:01 | 53.04306 | 8.63024 | 1746 ft | 106 kts | 82° |
| 2026-05-06 00:02 | 53.04348 | 8.64256 | 1599 ft | 107 kts | 82° |
| 2026-05-06 00:02 | 53.04371 | 8.64929 | 1522 ft | 105 kts | 83° |
| 2026-05-06 00:02 | 53.04400 | 8.65930 | 1383 ft | 104 kts | 84° |
| 2026-05-06 00:03 | 53.04411 | 8.67168 | 1218 ft | 109 kts | 86° |
| 2026-05-06 00:03 | 53.04457 | 8.68431 | 1093 ft | 110 kts | 84° |
| 2026-05-06 00:03 | 53.04483 | 8.69704 | 976 ft | 112 kts | 85° |
| 2026-05-06 00:03 | 53.04507 | 8.71007 | 835 ft | 113 kts | 86° |
| 2026-05-06 00:04 | 53.04529 | 8.72317 | 694 ft | 115 kts | 85° |
| 2026-05-06 00:04 | 53.04567 | 8.73648 | 539 ft | 114 kts | 86° |
| 2026-05-06 00:04 | 53.04601 | 8.74964 | 373 ft | 114 kts | 86° |
| 2026-05-06 00:04 | 53.04630 | 8.76314 | 207 ft | 118 kts | 85° |
| 2026-05-06 00:05 | 53.04695 | 8.78901 | 14 ft | 92 kts | 85° |
| 2026-05-06 00:05 | 53.04711 | 8.79751 | 15 ft | 44 kts | 87° |
| 2026-05-06 00:05 | 53.04752 | 8.79959 | 15 ft | 14 kts | 30° |
| 2026-05-06 00:06 | 53.04831 | 8.79964 | 15 ft | 10 kts | 334° |
| 2026-05-06 00:06 | 53.04876 | 8.79845 | 15 ft | 14 kts | 272° |
| 2026-05-06 00:06 | 53.04872 | 8.79649 | 15 ft | 18 kts | 267° |
| 2026-05-06 00:06 | 53.04866 | 8.79413 | 14 ft | 21 kts | 268° |
| 2026-05-06 00:07 | 53.04860 | 8.79137 | 14 ft | 25 kts | 269° |
| 2026-05-06 00:07 | 53.04855 | 8.78893 | 13 ft | 17 kts | 268° |
| 2026-05-06 00:07 | 53.04852 | 8.78721 | 13 ft | 11 kts | 278° |
| 2026-05-06 00:07 | 53.04867 | 8.78671 | 13 ft | 5 kts | 318° |
| 2026-05-06 00:08 | 53.04935 | 8.78654 | 13 ft | 12 kts | 0° |
| 2026-05-06 00:08 | 53.05025 | 8.78583 | 12 ft | 16 kts | 319° |
| 2026-05-06 00:08 | 53.05117 | 8.78445 | 12 ft | 15 kts | 314° |
| 2026-05-06 00:08 | 53.05168 | 8.78303 | 12 ft | 16 kts | 289° |
| 2026-05-06 00:09 | 53.05191 | 8.78122 | 12 ft | 11 kts | 270° |
| 2026-05-06 00:09 | 53.05169 | 8.78008 | 12 ft | 3 kts | 236° |
| 2026-05-06 00:09 | 53.05183 | 8.77961 | 11 ft | 6 kts | 341° |
| 2026-05-06 00:09 | 53.05221 | 8.77917 | 11 ft | 8 kts | 316° |
| 2026-05-06 00:10 | 53.05260 | 8.77853 | 11 ft | 6 kts | 318° |
| 2026-05-06 00:10 | 53.05286 | 8.77864 | 11 ft | 2 kts | 62° |
| 2026-05-06 00:10 | 53.05281 | 8.77881 | 11 ft | 0 kts | 169° |
| 2026-05-06 00:10 | 53.05279 | 8.77880 | 11 ft | 0 kts | 193° |